LDZALDPL

Guest
Details From LDZA - Zagreb
To LDPL - Pula
Flight Number -
Tags Generated
Created
Modified
Stats Distance 104 nm / 192 km
Max Altitude 0 ft / 0 m
Waypoints 2
Social Downloads 3
Likes 0
Share VATSIM

Download

Looking for another format? Having issues loading an existing format? Contact us
Advertisement - Login to hide

Notes

Generated

Route

LDZA LDPL

ID Type Via Altitude Latitude Longitude Leg Dist Tot Dist Heading (true) Name
O LDZA APT - 0 ft / 0 m 45.73188˚ 16.05197˚ - 0 nm - -
O LDPL APT - 0 ft / 0 m 44.89313˚ 13.90359˚ 103 nm 103 nm 242° / 240° -

Altitude Profile

Advertisement - Login to hide

LDZA

Details ICAO LDZA (ZAG)
Name Zagreb
Region Croatia
Timezone Europe/Zagreb (UTC+1.0)
Stats Elevation 353 ft / 108 m (AMSL)
Location 45.741890° 16.067200°
Runways 1
Magnetic Variation 3.959° E

METAR

LDZA 151230Z 30005KT 250V320 9999 -RA NSC 13/09 Q0999 NOSIG

Decode

TAF

TAF TAF LDZA 151125Z 1512/1612 VRB02KT 9999 SCT040 TX13/1512Z TN01/1601Z PROB30 TEMPO 1512/1514 SHRA FEW020TCU BKN025 BECMG 1516/1518 05008KT RA BKN014 BECMG 1523/1601 4000 -SNRA BKN005 OVC010 BECMG 1606/1608 VRB02KT 9999 NSW FEW010 SCT040

Decode

Departure Runways

ID Width Length Bearing (true) Bearing (mag) Surface Threshold Offset Overrun Length
05 148 ft / 45 m 10,659 ft / 3,249 m 46.69° 42.73° Asphalt 0 ft / 0 m 195 ft / 59 m
23 148 ft / 45 m 10,659 ft / 3,249 m 226.71° 222.75° Asphalt 0 ft / 0 m 195 ft / 59 m

LDPL

Details ICAO LDPL (PUY)
Name Pula
Region Croatia
Timezone Europe/Zagreb (UTC+1.0)
Stats Elevation 274 ft / 84 m (AMSL)
Location 44.893531° 13.922156°
Runways 1
Magnetic Variation 3.474° E

METAR

LDPL 151230Z 20005KT 130V240 9999 SCT042 BKN050 14/09 Q0998 NOSIG

Decode

TAF

TAF LDPL 151125Z 1512/1612 20008KT 9999 BKN050 TX15/1513Z TN05/1605Z BECMG 1513/1515 VRB02KT TEMPO 1515/1606 RA BKN013 BECMG 1523/1601 30010KT BECMG 1601/1603 06015KT

Decode

Destination Runways

ID Width Length Bearing (true) Bearing (mag) Surface Threshold Offset Overrun Length
09 148 ft / 45 m 9,601 ft / 2,926 m 88.24° 84.77° Asphalt 250 ft / 76 m 0 ft / 0 m
27 148 ft / 45 m 9,601 ft / 2,926 m 268.27° 264.80° Asphalt 250 ft / 76 m 0 ft / 0 m

Approach Navaids

Runway Type Ident Frequency Range Bearing (true) Bearing (mag) Slope Elevation
27 Localiser IPU 111.50 MHz 25 nm / 46 km 268.28° 264.81° - 157 ft / 48 m (AMSL)
27 Glidescope IPU 111.50 MHz 25 nm / 46 km 268.28° 264.81° 3.20° 243 ft / 74 m (AMSL)

Popular Alternatives